Time;durP1;ratioP1;P1;durP2;ratioP2;P2;SDS_P1;SDS_P2;PMS_P1;PMS_P2;Temp;Humidity;BMP_temperature;BMP_pressure;BME280_temperature;BME280_humidity;BME280_pressure;Samples;Min_cycle;Max_cycle;Signal;HPM_P1;HPM_P2
2022/07/22 00:05:34;;;;;;;3.62;1.60;;;;;;;24.63;43.95;100560.59;18230007;32;20099;-56
2022/07/22 00:15:39;;;;;;;4.50;2.05;;;;;;;24.51;43.87;100567.50;18232788;32;20135;-56
2022/07/22 00:25:43;;;;;;;4.15;1.73;;;;;;;24.21;44.34;100561.19;18231673;32;20161;-56
2022/07/22 00:35:47;;;;;;;4.07;1.87;;;;;;;23.93;45.62;100562.72;18231226;32;20074;-56
2022/07/22 00:45:51;;;;;;;2.92;1.95;;;;;;;23.91;45.12;100561.09;18229456;32;20151;-56
2022/07/22 00:55:56;;;;;;;4.30;2.20;;;;;;;23.77;45.10;100567.19;18230448;32;20098;-56
2022/07/22 01:05:59;;;;;;;6.28;2.05;;;;;;;23.56;45.92;100567.41;18229612;32;20628;-56
2022/07/22 01:16:04;;;;;;;6.00;1.95;;;;;;;23.34;48.17;100571.25;18230359;32;20120;-56
2022/07/22 01:26:09;;;;;;;8.00;2.10;;;;;;;23.24;47.75;100577.97;18229033;32;20094;-56
2022/07/22 01:36:13;;;;;;;4.78;2.00;;;;;;;23.03;47.95;100578.12;18228402;32;20122;-56
2022/07/22 01:46:18;;;;;;;3.83;1.62;;;;;;;22.97;48.65;100581.12;18227807;32;20176;-56
2022/07/22 01:56:21;;;;;;;4.80;2.03;;;;;;;22.80;49.92;100577.53;18227179;32;20106;-56
2022/07/22 02:06:26;;;;;;;5.25;2.08;;;;;;;22.53;50.57;100575.31;18226586;32;20106;-56
2022/07/22 02:16:30;;;;;;;6.60;2.42;;;;;;;22.60;50.39;100599.81;18226588;32;20112;-56
2022/07/22 02:26:35;;;;;;;4.03;2.45;;;;;;;22.66;50.34;100593.31;18232499;32;20120;-56
2022/07/22 02:36:38;;;;;;;5.87;2.30;;;;;;;22.41;51.34;100595.34;18235679;32;20098;-56
2022/07/22 02:46:43;;;;;;;5.10;2.37;;;;;;;22.27;51.63;100593.37;18235375;32;20113;-56
2022/07/22 02:56:46;;;;;;;5.30;2.33;;;;;;;21.97;52.53;100590.41;18235102;32;20443;-56
2022/07/22 03:06:51;;;;;;;4.62;2.20;;;;;;;22.06;52.39;100610.34;18234800;32;20108;-56
2022/07/22 03:16:54;;;;;;;6.40;2.60;;;;;;;21.83;53.56;100605.19;18235497;32;20102;-56
2022/07/22 03:26:59;;;;;;;5.65;2.53;;;;;;;21.89;53.21;100609.34;18234041;32;20362;-56
2022/07/22 03:37:02;;;;;;;4.68;2.50;;;;;;;21.71;53.65;100617.22;18232233;32;20098;-56
2022/07/22 03:47:07;;;;;;;8.45;2.80;;;;;;;21.68;54.08;100625.34;18232924;32;20105;-56
2022/07/22 03:57:10;;;;;;;6.80;2.67;;;;;;;21.53;54.93;100624.22;18356599;32;148630;-56
2022/07/22 04:07:16;;;;;;;7.05;2.28;;;;;;;21.86;54.25;100628.97;18562059;32;20170;-56
2022/07/22 04:17:19;;;;;;;4.87;2.25;;;;;;;22.16;53.58;100630.25;18562343;32;20106;-56
2022/07/22 04:27:24;;;;;;;6.45;2.37;;;;;;;22.77;51.95;100636.25;18561815;32;20486;-56
2022/07/22 04:37:27;;;;;;;4.62;2.40;;;;;;;23.16;51.22;100625.44;18562791;32;20541;-56
2022/07/22 04:47:32;;;;;;;7.30;2.47;;;;;;;23.61;50.46;100623.97;18560834;32;20146;-56
2022/07/22 04:57:35;;;;;;;4.43;1.67;;;;;;;24.48;48.03;100621.03;18561997;32;20111;-56
2022/07/22 05:07:40;;;;;;;7.20;1.90;;;;;;;25.31;45.52;100626.00;18546746;32;20092;-56
2022/07/22 05:17:43;;;;;;;5.12;2.30;;;;;;;25.51;44.81;100620.41;18560893;32;20118;-56
2022/07/22 05:27:56;;;;;;;4.12;1.80;;;;;;;26.07;44.36;100616.94;18560556;32;20146;-56
2022/07/22 05:37:59;;;;;;;6.32;1.80;;;;;;;26.69;41.04;100624.50;18559070;32;20088;-56
2022/07/22 05:48:04;;;;;;;5.75;1.90;;;;;;;27.17;41.63;100628.47;18323292;32;20093;-56
2022/07/22 05:58:07;;;;;;;5.53;1.80;;;;;;;27.24;39.65;100640.50;18345912;32;20094;-56
2022/07/22 06:08:12;;;;;;;4.82;2.05;;;;;;;28.27;38.44;100637.84;18299422;32;20378;-57
2022/07/22 06:18:15;;;;;;;7.72;1.90;;;;;;;28.76;40.12;100638.69;18352356;32;20094;-56
2022/07/22 06:28:20;;;;;;;6.72;2.35;;;;;;;29.09;38.87;100634.41;18296244;32;20078;-56
2022/07/22 06:38:23;;;;;;;6.95;2.15;;;;;;;29.55;38.77;100646.16;18297170;32;20114;-57
2022/07/22 06:48:38;;;;;;;7.90;2.65;;;;;;;29.47;40.01;100646.72;18298208;32;20106;-56
2022/07/22 06:58:41;;;;;;;7.15;1.98;;;;;;;30.24;38.32;100638.88;18298455;32;20094;-56
2022/07/22 07:08:46;;;;;;;6.32;2.03;;;;;;;30.52;36.70;100633.91;18296912;32;20097;-57
2022/07/22 07:18:49;;;;;;;4.28;1.70;;;;;;;30.97;36.05;100632.00;18298362;32;20085;-56
2022/07/22 07:28:54;;;;;;;4.90;1.55;;;;;;;31.24;32.19;100622.56;18296486;32;20143;-56
2022/07/22 07:38:58;;;;;;;3.87;1.30;;;;;;;31.55;31.92;100631.53;18296215;32;20350;-56
2022/07/22 07:49:04;;;;;;;3.47;1.10;;;;;;;32.58;25.22;100621.56;18295779;32;20097;-56
2022/07/22 07:59:07;;;;;;;5.05;1.05;;;;;;;33.69;20.07;100610.25;18295393;32;20094;-56
2022/07/22 08:09:31;;;;;;;3.42;1.45;;;;;;;34.30;20.76;100607.91;18294895;32;20472;-57
2022/07/22 08:19:34;;;;;;;4.18;1.02;;;;;;;33.97;18.56;100612.09;18293346;32;20153;-56
2022/07/22 08:29:38;;;;;;;3.75;1.02;;;;;;;33.78;17.87;100605.81;18293956;32;20100;-56
2022/07/22 08:39:42;;;;;;;2.95;1.15;;;;;;;34.68;16.86;100596.09;18292389;32;20102;-56
2022/07/22 08:49:47;;;;;;;2.22;1.17;;;;;;;35.35;18.37;100592.81;18339858;32;20112;-56
2022/07/22 08:59:52;;;;;;;2.85;1.10;;;;;;;35.14;17.28;100598.62;18292552;32;20085;-56
2022/07/22 09:09:57;;;;;;;3.05;1.50;;;;;;;35.83;18.51;100592.34;18345900;32;20103;-57
2022/07/22 09:20:01;;;;;;;3.10;1.33;;;;;;;36.03;18.20;100590.16;18292565;32;20104;-56
2022/07/22 09:30:06;;;;;;;3.30;1.30;;;;;;;36.48;18.55;100571.75;18291022;32;20094;-56
2022/07/22 09:40:14;;;;;;;4.15;1.75;;;;;;;37.41;17.60;100568.72;18291525;32;20108;-56
2022/07/22 09:50:21;;;;;;;3.70;1.43;;;;;;;37.19;20.44;100565.75;18291030;32;20104;-56
2022/07/22 10:00:26;;;;;;;2.45;1.42;;;;;;;37.46;17.10;100549.97;18343011;32;20097;-56
2022/07/22 10:10:32;;;;;;;3.20;1.67;;;;;;;37.29;18.04;100542.91;18343373;32;20343;-56
2022/07/22 10:20:36;;;;;;;3.25;1.60;;;;;;;38.42;17.75;100526.25;18342203;32;20649;-56
2022/07/22 10:30:40;;;;;;;4.75;2.03;;;;;;;38.97;17.62;100517.88;18341219;32;20098;-56
2022/07/22 10:40:49;;;;;;;5.72;2.08;;;;;;;38.96;18.03;100521.63;18341396;32;20394;-56
2022/07/22 10:50:56;;;;;;;5.05;1.98;;;;;;;38.68;16.51;100504.03;18351315;32;20459;-55
2022/07/22 11:01:01;;;;;;;8.30;2.17;;;;;;;39.30;16.75;100490.19;18298194;31;20113;-56
2022/07/22 11:11:06;;;;;;;9.15;2.20;;;;;;;40.26;15.32;100482.75;18297303;32;20077;-56
2022/07/22 11:21:09;;;;;;;5.78;1.85;;;;;;;39.90;15.39;100465.44;18349500;32;20111;-56
2022/07/22 11:31:19;;;;;;;4.65;2.17;;;;;;;40.97;15.97;100456.31;18297394;32;20102;-56
2022/07/22 11:41:22;;;;;;;6.50;2.30;;;;;;;40.73;15.33;100442.06;18296293;32;20159;-56
2022/07/22 11:51:31;;;;;;;5.20;2.00;;;;;;;41.58;15.03;100427.25;18295748;32;20380;-56
2022/07/22 12:01:35;;;;;;;2.75;1.70;;;;;;;40.59;14.47;100421.16;18294199;32;20491;-56
2022/07/22 12:11:42;;;;;;;3.87;1.92;;;;;;;41.14;15.36;100407.53;18295019;32;20094;-56
2022/07/22 12:21:52;;;;;;;10.37;2.43;;;;;;;40.68;15.10;100397.22;18347265;32;20098;-55
2022/07/22 12:31:58;;;;;;;5.45;2.10;;;;;;;41.94;14.43;100381.31;18294295;32;20450;-56
2022/07/22 12:42:01;;;;;;;6.53;2.00;;;;;;;41.97;14.74;100360.88;18294098;32;20350;-56
2022/07/22 12:52:11;;;;;;;3.33;1.95;;;;;;;41.52;15.16;100359.59;18294788;32;20152;-55
2022/07/22 13:02:14;;;;;;;8.88;2.72;;;;;;;42.38;13.77;100348.78;18346764;32;20098;-56
2022/07/22 13:12:18;;;;;;;6.30;2.47;;;;;;;42.55;14.06;100343.69;18345931;32;20641;-55
2022/07/22 13:22:22;;;;;;;3.83;1.90;;;;;;;42.22;14.47;100341.03;18292399;32;20102;-55
2022/07/22 13:32:26;;;;;;;5.87;2.45;;;;;;;40.89;15.44;100338.84;18291568;32;20097;-55
2022/07/22 13:42:49;;;;;;;7.00;2.58;;;;;;;42.72;14.08;100325.88;18343456;32;20094;-55
2022/07/22 13:52:53;;;;;;;5.28;2.78;;;;;;;41.37;16.09;100329.69;18291754;32;20154;-55
2022/07/22 14:02:57;;;;;;;9.77;2.72;;;;;;;40.38;17.47;100315.47;18342538;32;20116;-55
2022/07/22 14:13:01;;;;;;;5.55;2.87;;;;;;;41.33;17.03;100306.50;18342192;32;20097;-56
2022/07/22 14:23:06;;;;;;;5.18;2.37;;;;;;;40.50;17.12;100298.28;18296216;32;20437;-55
2022/07/22 14:33:10;;;;;;;4.40;2.67;;;;;;;39.76;17.46;100299.72;18298617;32;20098;-55
2022/07/22 14:43:13;;;;;;;5.68;2.62;;;;;;;39.83;17.98;100292.38;18298409;32;20074;-56
2022/07/22 14:53:36;;;;;;;6.93;2.78;;;;;;;40.15;17.09;100281.03;18298133;32;20093;-56
2022/07/22 15:03:40;;;;;;;6.50;3.22;;;;;;;40.34;17.75;100279.50;18297894;32;20090;-55
2022/07/22 15:13:45;;;;;;;5.50;2.80;;;;;;;41.05;17.17;100269.19;18297234;32;20491;-56
2022/07/22 15:23:48;;;;;;;5.05;2.78;;;;;;;41.00;17.52;100269.81;18296516;32;20098;-55
2022/07/22 15:33:53;;;;;;;6.22;3.10;;;;;;;40.40;17.89;100270.44;18296545;32;20674;-56
2022/07/22 15:43:56;;;;;;;5.97;2.78;;;;;;;39.22;19.44;100269.22;18297251;32;20158;-56
2022/07/22 15:54:01;;;;;;;8.25;3.05;;;;;;;39.29;19.31;100258.34;18367490;32;20106;-56
2022/07/22 16:04:04;;;;;;;7.12;2.92;;;;;;;39.68;19.20;100256.97;18300784;32;20116;-56
2022/07/22 16:14:09;;;;;;;5.37;2.70;;;;;;;39.09;19.97;100253.56;18295110;32;20146;-56
2022/07/22 16:24:13;;;;;;;6.95;2.72;;;;;;;38.83;19.76;100249.47;18294791;32;20102;-56
2022/07/22 16:34:17;;;;;;;6.68;2.90;;;;;;;39.13;19.70;100255.69;18295375;32;20116;-56
2022/07/22 16:44:20;;;;;;;5.75;2.67;;;;;;;39.27;20.01;100255.78;18347333;32;20120;-56
2022/07/22 16:54:25;;;;;;;5.82;2.95;;;;;;;39.45;19.62;100251.78;18294616;32;20098;-56
2022/07/22 17:04:28;;;;;;;7.60;2.83;;;;;;;39.12;19.20;100248.53;18292238;32;20691;-56
2022/07/22 17:14:34;;;;;;;6.65;3.00;;;;;;;38.81;19.94;100259.75;18292243;32;20121;-56
2022/07/22 17:24:38;;;;;;;6.72;3.42;;;;;;;38.70;20.42;100259.22;18292323;32;20111;-56
2022/07/22 17:34:42;;;;;;;6.53;3.00;;;;;;;38.41;20.49;100265.56;18344961;32;20438;-56
2022/07/22 17:44:46;;;;;;;6.60;2.85;;;;;;;38.31;20.33;100266.69;18291099;32;20094;-56
2022/07/22 17:54:50;;;;;;;5.87;3.00;;;;;;;37.84;21.16;100278.78;18294996;32;20108;-56
2022/07/22 18:04:53;;;;;;;7.55;3.28;;;;;;;37.46;21.80;100276.94;18299591;32;20477;-56
2022/07/22 18:14:58;;;;;;;5.82;2.97;;;;;;;36.86;23.94;100272.06;18351787;32;20425;-56
2022/07/22 18:25:02;;;;;;;8.73;3.42;;;;;;;36.01;26.54;100281.75;18299227;32;20085;-56
2022/07/22 18:35:08;;;;;;;9.70;3.10;;;;;;;35.11;28.79;100304.16;18298723;32;20438;-56
2022/07/22 18:45:12;;;;;;;6.10;3.30;;;;;;;34.22;31.68;100314.44;18298387;32;20113;-55
2022/07/22 18:55:16;;;;;;;7.37;3.03;;;;;;;33.49;33.36;100320.00;18350522;32;20108;-55
2022/07/22 19:05:20;;;;;;;7.87;3.08;;;;;;;32.94;34.61;100329.91;18295683;32;20090;-55
2022/07/22 19:15:24;;;;;;;8.35;3.50;;;;;;;32.29;35.10;100336.13;18294381;32;20101;-55
2022/07/22 19:25:27;;;;;;;7.03;3.60;;;;;;;31.96;35.62;100342.72;18293552;32;20129;-55
2022/07/22 19:35:32;;;;;;;10.50;3.60;;;;;;;31.65;36.08;100352.84;18345374;32;20174;-55
2022/07/22 19:45:35;;;;;;;8.98;3.67;;;;;;;31.30;37.41;100357.75;18292529;32;20098;-55
2022/07/22 19:55:40;;;;;;;7.78;3.28;;;;;;;30.80;38.48;100359.47;18291797;32;20096;-55
2022/07/22 20:05:43;;;;;;;8.63;3.60;;;;;;;30.39;39.31;100370.19;18290821;32;74727;-56
2022/07/22 20:15:48;;;;;;;9.32;3.65;;;;;;;29.99;40.61;100379.84;18294410;32;20133;-56
2022/07/22 20:25:52;;;;;;;7.53;3.45;;;;;;;29.79;40.68;100386.06;18294210;32;20108;-56
2022/07/22 20:35:56;;;;;;;8.35;3.78;;;;;;;29.60;41.20;100380.38;18294098;32;20116;-56
2022/07/22 20:46:00;;;;;;;11.07;3.70;;;;;;;29.41;41.16;100372.09;18294045;32;20124;-56
2022/07/22 20:56:05;;;;;;;6.57;3.53;;;;;;;28.89;42.81;100381.59;18293280;31;20112;-56
2022/07/22 21:06:09;;;;;;;7.55;3.70;;;;;;;28.85;43.11;100393.56;18293996;32;20098;-56
2022/07/22 21:16:14;;;;;;;8.90;3.37;;;;;;;28.65;43.77;100400.50;18346272;32;20098;-56
2022/07/22 21:26:17;;;;;;;8.02;3.70;;;;;;;28.43;44.84;100399.50;18344639;32;20105;-56
2022/07/22 21:36:22;;;;;;;8.00;4.28;;;;;;;28.35;44.46;100400.06;18291544;32;20089;-56
2022/07/22 21:46:25;;;;;;;12.23;4.78;;;;;;;28.09;45.09;100402.06;18291288;32;20098;-56
2022/07/22 22:07:02;;;;;;;8.82;4.40;;;;;;;27.74;46.37;100400.22;18417668;32;20140;-56
2022/07/22 22:17:07;;;;;;;10.13;4.32;;;;;;;27.50;46.94;100409.09;18417707;32;20124;-56
2022/07/22 22:27:11;;;;;;;8.68;4.72;;;;;;;27.22;48.58;100393.25;18418194;32;20404;-56
2022/07/22 22:37:16;;;;;;;11.98;5.00;;;;;;;27.14;47.70;100412.53;18354192;32;20129;-56
2022/07/22 22:47:19;;;;;;;9.73;5.12;;;;;;;26.93;48.38;100398.00;18350916;32;20098;-56
2022/07/22 22:57:24;;;;;;;11.00;5.90;;;;;;;26.24;51.02;100420.56;18298221;32;20093;-56
2022/07/22 23:07:27;;;;;;;11.82;5.50;;;;;;;26.55;50.38;100423.81;18297794;32;20109;-56
2022/07/22 23:17:32;;;;;;;9.75;4.70;;;;;;;26.64;50.42;100417.81;18297241;32;20114;-56
2022/07/22 23:27:36;;;;;;;10.05;4.95;;;;;;;26.15;51.62;100406.81;18298081;32;20097;-56
2022/07/22 23:37:41;;;;;;;10.88;5.60;;;;;;;26.08;51.61;100413.53;18296335;32;20745;-56
2022/07/22 23:47:44;;;;;;;10.77;5.40;;;;;;;25.93;51.87;100403.91;18295777;32;20085;-56
2022/07/22 23:57:48;;;;;;;10.13;5.20;;;;;;;25.72;52.35;100407.03;18294717;32;20111;-56
